Time,TemperatureF,DewpointF,PressureIn,WindDirection,WindDirectionDegrees,WindSpeedMPH,WindSpeedGustMPH,Humidity,HourlyPrecipIn,Conditions,Clouds,dailyrainin,SolarRadiationWatts/m^2,SoftwareType,DateUTC
2013-04-20 00:03:00,64.1,37.0,30.21,SSE,147,0.0,-999.0,37,-99.99,,,0.00,0,weatherlink.com 1.10,2013-04-20 07:03:00,
2013-04-20 00:18:00,64.0,36.0,30.22,SSE,147,0.0,-999.0,36,-99.99,,,0.00,0,weatherlink.com 1.10,2013-04-20 07:18:00,
2013-04-20 00:33:00,63.3,38.0,30.21,SSE,147,0.0,-999.0,40,-99.99,,,0.00,0,weatherlink.com 1.10,2013-04-20 07:33:00,
2013-04-20 00:48:00,62.6,39.0,30.21,SSE,147,0.0,-999.0,42,-99.99,,,0.00,0,weatherlink.com 1.10,2013-04-20 07:48:00,
2013-04-20 01:03:00,62.0,39.0,30.21,SSE,147,0.0,-999.0,43,-99.99,,,0.00,0,weatherlink.com 1.10,2013-04-20 08:03:00,
2013-04-20 01:19:00,61.2,38.0,30.20,SSE,147,0.0,-999.0,43,-99.99,,,0.00,0,weatherlink.com 1.10,2013-04-20 08:19:00,
2013-04-20 01:34:00,61.4,36.0,30.20,SSE,147,0.0,-999.0,39,-99.99,,,0.00,0,weatherlink.com 1.10,2013-04-20 08:34:00,
2013-04-20 01:49:00,61.2,35.0,30.19,SE,146,0.0,-999.0,38,-99.99,,,0.00,0,weatherlink.com 1.10,2013-04-20 08:49:00,
2013-04-20 02:04:00,60.5,36.0,30.19,SE,146,0.0,-999.0,40,-99.99,,,0.00,0,weatherlink.com 1.10,2013-04-20 09:04:00,
2013-04-20 02:19:00,60.6,37.0,30.19,SSE,147,0.0,-999.0,42,-99.99,,,0.00,0,weatherlink.com 1.10,2013-04-20 09:19:00,
2013-04-20 02:34:00,60.1,38.0,30.18,SE,146,0.0,-999.0,44,-99.99,,,0.00,0,weatherlink.com 1.10,2013-04-20 09:34:00,
2013-04-20 02:49:00,60.1,36.0,30.18,SSE,147,0.0,-999.0,40,-99.99,,,0.00,0,weatherlink.com 1.10,2013-04-20 09:49:00,
2013-04-20 03:04:00,60.3,35.0,30.17,SE,146,0.0,-999.0,39,-99.99,,,0.00,0,weatherlink.com 1.10,2013-04-20 10:04:00,
2013-04-20 03:19:00,59.9,35.0,30.17,SSE,147,0.0,-999.0,40,-99.99,,,0.00,0,weatherlink.com 1.10,2013-04-20 10:19:00,
2013-04-20 03:34:00,60.0,34.0,30.16,SSE,147,0.0,-999.0,38,-99.99,,,0.00,0,weatherlink.com 1.10,2013-04-20 10:34:00,
2013-04-20 03:49:00,60.0,35.0,30.16,SE,146,0.0,-999.0,39,-99.99,,,0.00,0,weatherlink.com 1.10,2013-04-20 10:49:00,
2013-04-20 04:04:00,60.4,34.0,30.16,SSE,147,0.0,-999.0,37,-99.99,,,0.00,0,weatherlink.com 1.10,2013-04-20 11:04:00,
2013-04-20 04:19:00,60.5,30.0,30.16,SE,146,0.0,-999.0,32,-99.99,,,0.00,0,weatherlink.com 1.10,2013-04-20 11:19:00,
2013-04-20 04:34:00,61.3,33.0,30.16,SSE,147,0.0,-999.0,35,-99.99,,,0.00,0,weatherlink.com 1.10,2013-04-20 11:34:00,
2013-04-20 04:49:00,60.7,32.0,30.16,SSE,147,0.0,-999.0,34,-99.99,,,0.00,0,weatherlink.com 1.10,2013-04-20 11:49:00,
2013-04-20 05:04:00,59.8,35.0,30.15,SSE,147,0.0,-999.0,39,-99.99,,,0.00,0,weatherlink.com 1.10,2013-04-20 12:04:00,
2013-04-20 05:19:00,59.0,35.0,30.16,SSE,147,0.0,-999.0,40,-99.99,,,0.00,0,weatherlink.com 1.10,2013-04-20 12:19:00,
2013-04-20 05:34:00,58.6,34.0,30.16,SSE,147,0.0,-999.0,40,-99.99,,,0.00,0,weatherlink.com 1.10,2013-04-20 12:34:00,
2013-04-20 05:49:00,58.0,35.0,30.17,SSE,147,0.0,-999.0,43,-99.99,,,0.00,0,weatherlink.com 1.10,2013-04-20 12:49:00,
2013-04-20 06:04:00,58.6,34.0,30.18,SSE,147,0.0,-999.0,40,-99.99,,,0.00,5,weatherlink.com 1.10,2013-04-20 13:04:00,
2013-04-20 06:19:00,58.8,33.0,30.18,SSE,147,0.0,-999.0,38,-99.99,,,0.00,14,weatherlink.com 1.10,2013-04-20 13:19:00,
2013-04-20 06:34:00,59.4,31.0,30.18,SSE,147,0.0,-999.0,34,-99.99,,,0.00,37,weatherlink.com 1.10,2013-04-20 13:34:00,
2013-04-20 06:49:00,60.5,32.0,30.18,SE,146,0.0,-999.0,34,-99.99,,,0.00,72,weatherlink.com 1.10,2013-04-20 13:49:00,
2013-04-20 07:04:00,62.4,31.0,30.18,SSE,147,0.0,-999.0,31,-99.99,,,0.00,121,weatherlink.com 1.10,2013-04-20 14:04:00,
2013-04-20 07:19:00,65.4,31.0,30.19,SE,146,0.0,-999.0,28,-99.99,,,0.00,165,weatherlink.com 1.10,2013-04-20 14:19:00,
2013-04-20 07:34:00,67.2,39.0,30.20,SE,146,0.0,-999.0,35,-99.99,,,0.00,218,weatherlink.com 1.10,2013-04-20 14:34:00,
2013-04-20 07:49:00,66.2,38.0,30.20,SSE,147,0.0,-999.0,36,-99.99,,,0.00,281,weatherlink.com 1.10,2013-04-20 14:49:00,
2013-04-20 08:05:00,67.2,38.0,30.21,SSE,147,0.0,-999.0,34,-99.99,,,0.00,343,weatherlink.com 1.10,2013-04-20 15:05:00,
2013-04-20 08:20:00,68.4,37.0,30.21,SSE,147,0.0,-999.0,32,-99.99,,,0.00,381,weatherlink.com 1.10,2013-04-20 15:20:00,
2013-04-20 08:35:00,70.8,37.0,30.21,SSE,147,0.0,-999.0,29,-99.99,,,0.00,429,weatherlink.com 1.10,2013-04-20 15:35:00,
2013-04-20 08:50:00,73.0,37.0,30.21,SSE,147,0.0,-999.0,27,-99.99,,,0.00,466,weatherlink.com 1.10,2013-04-20 15:50:00,
2013-04-20 09:05:00,74.4,39.0,30.21,SSE,147,0.0,-999.0,28,-99.99,,,0.00,533,weatherlink.com 1.10,2013-04-20 16:05:00,
2013-04-20 09:20:00,75.8,38.0,30.21,SSE,147,0.0,-999.0,25,-99.99,,,0.00,578,weatherlink.com 1.10,2013-04-20 16:20:00,
2013-04-20 09:35:00,78.3,36.0,30.21,SE,146,0.0,-999.0,22,-99.99,,,0.00,619,weatherlink.com 1.10,2013-04-20 16:35:00,
2013-04-20 09:50:00,80.6,35.0,30.21,SE,146,0.0,-999.0,19,-99.99,,,0.00,663,weatherlink.com 1.10,2013-04-20 16:50:00,
2013-04-20 10:05:00,81.1,31.0,30.21,SSE,147,0.0,-999.0,16,-99.99,,,0.00,696,weatherlink.com 1.10,2013-04-20 17:05:00,
2013-04-20 10:20:00,81.5,34.0,30.21,SSE,147,1.0,-999.0,18,-99.99,,,0.00,731,weatherlink.com 1.10,2013-04-20 17:20:00,
2013-04-20 10:35:00,82.9,35.0,30.21,SSE,147,0.0,-999.0,18,-99.99,,,0.00,765,weatherlink.com 1.10,2013-04-20 17:35:00,
2013-04-20 10:50:00,83.4,34.0,30.22,SSE,147,0.0,-999.0,17,-99.99,,,0.00,791,weatherlink.com 1.10,2013-04-20 17:50:00,
2013-04-20 11:05:00,84.4,33.0,30.21,SE,145,0.0,-999.0,16,-99.99,,,0.00,819,weatherlink.com 1.10,2013-04-20 18:05:00,
2013-04-20 11:20:00,85.5,37.0,30.21,SE,145,0.0,-999.0,18,-99.99,,,0.00,840,weatherlink.com 1.10,2013-04-20 18:20:00,
2013-04-20 11:36:00,86.3,38.0,30.20,SSE,151,2.0,-999.0,18,-99.99,,,0.00,861,weatherlink.com 1.10,2013-04-20 18:36:00,
2013-04-20 11:51:00,87.0,40.0,30.20,SSE,159,2.0,-999.0,19,-99.99,,,0.00,877,weatherlink.com 1.10,2013-04-20 18:51:00,
2013-04-20 12:06:00,87.3,39.0,30.20,SSE,165,6.0,-999.0,18,-99.99,,,0.00,886,weatherlink.com 1.10,2013-04-20 19:06:00,
2013-04-20 12:21:00,87.9,38.0,30.19,SSE,168,0.0,-999.0,17,-99.99,,,0.00,896,weatherlink.com 1.10,2013-04-20 19:21:00,
2013-04-20 12:36:00,88.8,36.0,30.19,SSE,165,4.0,-999.0,15,-99.99,,,0.00,895,weatherlink.com 1.10,2013-04-20 19:36:00,
2013-04-20 12:52:00,89.9,36.0,30.18,SSE,165,0.0,-999.0,15,-99.99,,,0.00,896,weatherlink.com 1.10,2013-04-20 19:52:00,
2013-04-20 13:06:00,90.4,38.0,30.18,SSE,163,0.0,-999.0,16,-99.99,,,0.00,891,weatherlink.com 1.10,2013-04-20 20:06:00,
2013-04-20 13:21:00,90.4,37.0,30.17,South,173,0.0,-999.0,15,-99.99,,,0.00,884,weatherlink.com 1.10,2013-04-20 20:21:00,
2013-04-20 13:36:00,91.5,38.0,30.16,South,173,0.0,-999.0,15,-99.99,,,0.00,868,weatherlink.com 1.10,2013-04-20 20:36:00,
2013-04-20 13:51:00,92.0,36.0,30.16,SSE,168,2.0,-999.0,14,-99.99,,,0.00,854,weatherlink.com 1.10,2013-04-20 20:51:00,
2013-04-20 14:06:00,91.8,34.0,30.16,South,176,2.0,-999.0,13,-99.99,,,0.00,833,weatherlink.com 1.10,2013-04-20 21:06:00,
2013-04-20 14:21:00,92.3,37.0,30.15,South,176,0.0,-999.0,14,-99.99,,,0.00,810,weatherlink.com 1.10,2013-04-20 21:21:00,
2013-04-20 14:36:00,92.3,38.0,30.14,SSE,165,4.0,-999.0,15,-99.99,,,0.00,784,weatherlink.com 1.10,2013-04-20 21:36:00,
2013-04-20 14:51:00,92.3,38.0,30.13,SSE,167,1.0,-999.0,15,-99.99,,,0.00,751,weatherlink.com 1.10,2013-04-20 21:51:00,
2013-04-20 15:06:00,92.6,39.0,30.12,South,172,0.0,-999.0,15,-99.99,,,0.00,719,weatherlink.com 1.10,2013-04-20 22:06:00,
2013-04-20 15:21:00,92.5,37.0,30.12,SSE,168,0.0,-999.0,14,-99.99,,,0.00,679,weatherlink.com 1.10,2013-04-20 22:21:00,
2013-04-20 15:36:00,93.5,38.0,30.11,South,175,1.0,-999.0,14,-99.99,,,0.00,640,weatherlink.com 1.10,2013-04-20 22:36:00,
2013-04-20 15:51:00,93.2,35.0,30.10,SSE,162,7.0,-999.0,13,-99.99,,,0.00,598,weatherlink.com 1.10,2013-04-20 22:51:00,
2013-04-20 16:06:00,93.4,37.0,30.10,SSE,162,0.0,-999.0,14,-99.99,,,0.00,554,weatherlink.com 1.10,2013-04-20 23:06:00,
2013-04-20 16:21:00,93.5,38.0,30.10,South,169,4.0,-999.0,14,-99.99,,,0.00,508,weatherlink.com 1.10,2013-04-20 23:21:00,
2013-04-20 16:36:00,92.9,37.0,30.09,SSE,159,4.0,-999.0,14,-99.99,,,0.00,459,weatherlink.com 1.10,2013-04-20 23:36:00,
2013-04-20 16:51:00,92.7,37.0,30.09,SSE,152,1.0,-999.0,14,-99.99,,,0.00,411,weatherlink.com 1.10,2013-04-20 23:51:00,
2013-04-20 17:06:00,92.4,38.0,30.09,SSE,156,2.0,-999.0,15,-99.99,,,0.00,359,weatherlink.com 1.10,2013-04-21 00:06:00,
2013-04-20 17:21:00,91.4,38.0,30.09,SSE,161,5.0,-999.0,15,-99.99,,,0.00,313,weatherlink.com 1.10,2013-04-21 00:21:00,
2013-04-20 17:36:00,91.0,37.0,30.09,SSE,149,0.0,-999.0,15,-99.99,,,0.00,260,weatherlink.com 1.10,2013-04-21 00:36:00,
2013-04-20 17:51:00,90.5,37.0,30.09,SSE,148,4.0,-999.0,15,-99.99,,,0.00,211,weatherlink.com 1.10,2013-04-21 00:51:00,
2013-04-20 18:06:00,89.8,36.0,30.09,SSE,149,1.0,-999.0,15,-99.99,,,0.00,165,weatherlink.com 1.10,2013-04-21 01:06:00,
2013-04-20 18:21:00,89.2,36.0,30.09,SSE,150,2.0,-999.0,15,-99.99,,,0.00,113,weatherlink.com 1.10,2013-04-21 01:21:00,
2013-04-20 18:36:00,88.6,37.0,30.09,SSE,160,0.0,-999.0,16,-99.99,,,0.00,69,weatherlink.com 1.10,2013-04-21 01:36:00,
2013-04-20 18:51:00,87.7,36.0,30.10,SSE,156,2.0,-999.0,16,-99.99,,,0.00,33,weatherlink.com 1.10,2013-04-21 01:51:00,
2013-04-20 19:06:00,86.5,37.0,30.10,SSE,156,4.0,-999.0,17,-99.99,,,0.00,12,weatherlink.com 1.10,2013-04-21 02:06:00,
2013-04-20 19:21:00,85.4,37.0,30.10,SSE,156,0.0,-999.0,18,-99.99,,,0.00,0,weatherlink.com 1.10,2013-04-21 02:21:00,
2013-04-20 19:36:00,84.1,36.0,30.10,SSE,157,0.0,-999.0,18,-99.99,,,0.00,0,weatherlink.com 1.10,2013-04-21 02:36:00,
2013-04-20 19:51:00,83.6,36.0,30.11,SSE,156,1.0,-999.0,18,-99.99,,,0.00,0,weatherlink.com 1.10,2013-04-21 02:51:00,
2013-04-20 20:06:00,83.1,34.0,30.11,SSE,157,0.0,-999.0,17,-99.99,,,0.00,0,weatherlink.com 1.10,2013-04-21 03:06:00,
2013-04-20 20:21:00,82.5,33.0,30.12,SSE,157,0.0,-999.0,17,-99.99,,,0.00,0,weatherlink.com 1.10,2013-04-21 03:21:00,
2013-04-20 20:37:00,81.4,38.0,30.13,SSE,157,0.0,-999.0,21,-99.99,,,0.00,0,weatherlink.com 1.10,2013-04-21 03:37:00,
2013-04-20 20:52:00,79.2,37.0,30.14,SSE,156,0.0,-999.0,22,-99.99,,,0.00,0,weatherlink.com 1.10,2013-04-21 03:52:00,
2013-04-20 21:07:00,77.8,37.0,30.14,SSE,156,0.0,-999.0,23,-99.99,,,0.00,0,weatherlink.com 1.10,2013-04-21 04:07:00,
2013-04-20 21:22:00,77.2,38.0,30.15,SSE,157,0.0,-999.0,24,-99.99,,,0.00,0,weatherlink.com 1.10,2013-04-21 04:22:00,
2013-04-20 21:37:00,76.1,40.0,30.16,SSE,156,0.0,-999.0,27,-99.99,,,0.00,0,weatherlink.com 1.10,2013-04-21 04:37:00,
2013-04-20 21:52:00,75.0,42.0,30.16,SSE,157,0.0,-999.0,31,-99.99,,,0.00,0,weatherlink.com 1.10,2013-04-21 04:52:00,
2013-04-20 22:07:00,73.3,43.0,30.17,SSE,157,0.0,-999.0,34,-99.99,,,0.00,0,weatherlink.com 1.10,2013-04-21 05:07:00,
2013-04-20 22:22:00,72.0,43.0,30.16,SSE,157,0.0,-999.0,35,-99.99,,,0.00,0,weatherlink.com 1.10,2013-04-21 05:22:00,
2013-04-20 22:37:00,71.6,42.0,30.17,SSE,156,0.0,-999.0,34,-99.99,,,0.00,0,weatherlink.com 1.10,2013-04-21 05:37:00,
2013-04-20 22:52:00,71.5,42.0,30.17,SSE,156,0.0,-999.0,35,-99.99,,,0.00,0,weatherlink.com 1.10,2013-04-21 05:52:00,
2013-04-20 23:07:00,71.2,42.0,30.17,SSE,157,0.0,-999.0,35,-99.99,,,0.00,0,weatherlink.com 1.10,2013-04-21 06:07:00,
2013-04-20 23:22:00,70.7,43.0,30.18,SSE,157,0.0,-999.0,37,-99.99,,,0.00,0,weatherlink.com 1.10,2013-04-21 06:22:00,
2013-04-20 23:37:00,70.4,42.0,30.17,SSE,157,0.0,-999.0,36,-99.99,,,0.00,0,weatherlink.com 1.10,2013-04-21 06:37:00,
2013-04-20 23:52:00,70.0,43.0,30.17,SSE,157,0.0,-999.0,38,-99.99,,,0.00,0,weatherlink.com 1.10,2013-04-21 06:52:00,